sensor_id;sensor_type;location;lat;lon;timestamp;P1;durP1;ratioP1;P2;durP2;ratioP2
55172;SDS011;41061;52.822;6.860;2023-03-16T00:00:01;10.05;;;2.78;;
55172;SDS011;41061;52.822;6.860;2023-03-16T00:02:28;9.30;;;2.65;;
55172;SDS011;41061;52.822;6.860;2023-03-16T00:04:54;4.68;;;2.17;;
55172;SDS011;41061;52.822;6.860;2023-03-16T00:07:19;6.03;;;2.70;;
55172;SDS011;41061;52.822;6.860;2023-03-16T00:09:45;6.95;;;2.90;;
55172;SDS011;41061;52.822;6.860;2023-03-16T00:12:15;8.52;;;2.67;;
55172;SDS011;41061;52.822;6.860;2023-03-16T00:14:43;7.38;;;2.78;;
55172;SDS011;41061;52.822;6.860;2023-03-16T00:17:11;6.65;;;2.58;;
55172;SDS011;41061;52.822;6.860;2023-03-16T00:19:43;7.00;;;2.80;;
55172;SDS011;41061;52.822;6.860;2023-03-16T00:22:22;8.18;;;3.20;;
55172;SDS011;41061;52.822;6.860;2023-03-16T00:24:50;9.40;;;2.75;;
55172;SDS011;41061;52.822;6.860;2023-03-16T00:27:17;9.63;;;2.95;;
55172;SDS011;41061;52.822;6.860;2023-03-16T00:29:43;20.30;;;3.85;;
55172;SDS011;41061;52.822;6.860;2023-03-16T00:32:14;12.50;;;3.20;;
55172;SDS011;41061;52.822;6.860;2023-03-16T00:34:43;9.65;;;3.15;;
55172;SDS011;41061;52.822;6.860;2023-03-16T00:37:09;6.50;;;3.00;;
55172;SDS011;41061;52.822;6.860;2023-03-16T00:39:43;9.85;;;3.30;;
55172;SDS011;41061;52.822;6.860;2023-03-16T00:42:11;7.50;;;2.92;;
55172;SDS011;41061;52.822;6.860;2023-03-16T00:44:38;12.07;;;4.53;;
55172;SDS011;41061;52.822;6.860;2023-03-16T00:47:05;9.80;;;3.13;;
55172;SDS011;41061;52.822;6.860;2023-03-16T00:49:32;10.30;;;3.30;;
55172;SDS011;41061;52.822;6.860;2023-03-16T00:52:03;12.40;;;3.88;;
55172;SDS011;41061;52.822;6.860;2023-03-16T00:54:30;8.43;;;3.17;;
55172;SDS011;41061;52.822;6.860;2023-03-16T00:56:59;6.72;;;2.97;;
55172;SDS011;41061;52.822;6.860;2023-03-16T00:59:26;7.00;;;3.22;;
55172;SDS011;41061;52.822;6.860;2023-03-16T01:01:53;14.75;;;3.63;;
55172;SDS011;41061;52.822;6.860;2023-03-16T01:04:20;11.65;;;3.78;;
55172;SDS011;41061;52.822;6.860;2023-03-16T01:06:46;14.15;;;3.33;;
55172;SDS011;41061;52.822;6.860;2023-03-16T01:09:13;10.10;;;3.60;;
55172;SDS011;41061;52.822;6.860;2023-03-16T01:11:39;9.50;;;3.03;;
55172;SDS011;41061;52.822;6.860;2023-03-16T01:14:09;8.18;;;3.35;;
55172;SDS011;41061;52.822;6.860;2023-03-16T01:16:35;11.52;;;3.72;;
55172;SDS011;41061;52.822;6.860;2023-03-16T01:19:01;9.93;;;3.10;;
55172;SDS011;41061;52.822;6.860;2023-03-16T01:21:27;7.15;;;2.70;;
55172;SDS011;41061;52.822;6.860;2023-03-16T01:23:54;9.70;;;3.65;;
55172;SDS011;41061;52.822;6.860;2023-03-16T01:26:20;10.30;;;2.97;;
55172;SDS011;41061;52.822;6.860;2023-03-16T01:28:47;8.70;;;2.85;;
55172;SDS011;41061;52.822;6.860;2023-03-16T01:31:13;6.88;;;2.75;;
55172;SDS011;41061;52.822;6.860;2023-03-16T01:33:39;9.48;;;3.30;;
55172;SDS011;41061;52.822;6.860;2023-03-16T01:38:33;9.68;;;2.38;;
55172;SDS011;41061;52.822;6.860;2023-03-16T01:40:59;5.40;;;2.67;;
55172;SDS011;41061;52.822;6.860;2023-03-16T01:43:26;6.38;;;2.50;;
55172;SDS011;41061;52.822;6.860;2023-03-16T01:48:28;9.15;;;2.85;;
55172;SDS011;41061;52.822;6.860;2023-03-16T01:51:01;8.85;;;3.33;;
55172;SDS011;41061;52.822;6.860;2023-03-16T01:53:31;9.77;;;2.78;;
55172;SDS011;41061;52.822;6.860;2023-03-16T01:55:59;8.30;;;2.10;;
55172;SDS011;41061;52.822;6.860;2023-03-16T01:58:28;7.00;;;2.70;;
55172;SDS011;41061;52.822;6.860;2023-03-16T02:00:55;5.78;;;2.60;;
55172;SDS011;41061;52.822;6.860;2023-03-16T02:03:22;10.30;;;3.13;;
55172;SDS011;41061;52.822;6.860;2023-03-16T02:06:05;10.80;;;3.40;;
55172;SDS011;41061;52.822;6.860;2023-03-16T02:08:32;11.52;;;3.00;;
55172;SDS011;41061;52.822;6.860;2023-03-16T02:11:00;11.43;;;2.60;;
55172;SDS011;41061;52.822;6.860;2023-03-16T02:13:28;8.73;;;3.03;;
55172;SDS011;41061;52.822;6.860;2023-03-16T02:15:58;4.07;;;2.30;;
55172;SDS011;41061;52.822;6.860;2023-03-16T02:18:24;6.30;;;3.10;;
55172;SDS011;41061;52.822;6.860;2023-03-16T02:20:54;8.07;;;3.05;;
55172;SDS011;41061;52.822;6.860;2023-03-16T02:23:27;5.07;;;2.78;;
55172;SDS011;41061;52.822;6.860;2023-03-16T02:25:59;8.48;;;3.00;;
55172;SDS011;41061;52.822;6.860;2023-03-16T02:31:35;7.57;;;3.00;;
55172;SDS011;41061;52.822;6.860;2023-03-16T02:34:01;7.97;;;2.85;;
55172;SDS011;41061;52.822;6.860;2023-03-16T02:36:28;6.90;;;3.00;;
55172;SDS011;41061;52.822;6.860;2023-03-16T02:38:54;8.02;;;2.75;;
55172;SDS011;41061;52.822;6.860;2023-03-16T02:41:20;9.80;;;3.70;;
55172;SDS011;41061;52.822;6.860;2023-03-16T02:43:50;7.72;;;2.97;;
55172;SDS011;41061;52.822;6.860;2023-03-16T02:46:25;6.00;;;2.67;;
55172;SDS011;41061;52.822;6.860;2023-03-16T02:49:04;11.80;;;3.20;;
55172;SDS011;41061;52.822;6.860;2023-03-16T02:51:35;7.05;;;2.80;;
55172;SDS011;41061;52.822;6.860;2023-03-16T02:54:01;5.05;;;2.83;;
55172;SDS011;41061;52.822;6.860;2023-03-16T02:56:27;6.45;;;2.78;;
55172;SDS011;41061;52.822;6.860;2023-03-16T02:58:53;10.15;;;3.28;;
55172;SDS011;41061;52.822;6.860;2023-03-16T03:01:21;11.60;;;3.58;;
55172;SDS011;41061;52.822;6.860;2023-03-16T03:03:47;9.27;;;3.00;;
55172;SDS011;41061;52.822;6.860;2023-03-16T03:06:13;5.85;;;2.60;;
55172;SDS011;41061;52.822;6.860;2023-03-16T03:08:40;7.65;;;3.00;;
55172;SDS011;41061;52.822;6.860;2023-03-16T03:11:06;10.27;;;2.92;;
55172;SDS011;41061;52.822;6.860;2023-03-16T03:13:33;12.27;;;3.63;;
55172;SDS011;41061;52.822;6.860;2023-03-16T03:15:59;7.93;;;2.65;;
55172;SDS011;41061;52.822;6.860;2023-03-16T03:18:25;7.43;;;3.00;;
55172;SDS011;41061;52.822;6.860;2023-03-16T03:20:52;7.00;;;3.25;;
55172;SDS011;41061;52.822;6.860;2023-03-16T03:23:17;7.05;;;2.63;;
55172;SDS011;41061;52.822;6.860;2023-03-16T03:25:44;6.30;;;3.30;;
55172;SDS011;41061;52.822;6.860;2023-03-16T03:28:10;8.98;;;3.05;;
55172;SDS011;41061;52.822;6.860;2023-03-16T03:30:35;10.23;;;3.42;;
55172;SDS011;41061;52.822;6.860;2023-03-16T03:33:01;8.02;;;3.20;;
55172;SDS011;41061;52.822;6.860;2023-03-16T03:35:27;8.10;;;3.40;;
55172;SDS011;41061;52.822;6.860;2023-03-16T03:37:53;7.35;;;3.40;;
55172;SDS011;41061;52.822;6.860;2023-03-16T03:40:18;9.27;;;3.25;;
55172;SDS011;41061;52.822;6.860;2023-03-16T03:42:45;8.38;;;3.40;;
55172;SDS011;41061;52.822;6.860;2023-03-16T03:45:12;9.00;;;3.10;;
55172;SDS011;41061;52.822;6.860;2023-03-16T03:47:38;5.53;;;3.25;;
55172;SDS011;41061;52.822;6.860;2023-03-16T03:50:06;7.70;;;3.10;;
55172;SDS011;41061;52.822;6.860;2023-03-16T03:52:32;8.85;;;3.50;;
55172;SDS011;41061;52.822;6.860;2023-03-16T03:54:58;6.97;;;2.95;;
55172;SDS011;41061;52.822;6.860;2023-03-16T03:57:24;6.35;;;3.15;;
55172;SDS011;41061;52.822;6.860;2023-03-16T03:59:50;8.30;;;3.42;;
55172;SDS011;41061;52.822;6.860;2023-03-16T04:02:15;12.98;;;3.70;;
55172;SDS011;41061;52.822;6.860;2023-03-16T04:04:41;6.75;;;3.20;;
55172;SDS011;41061;52.822;6.860;2023-03-16T04:07:08;12.57;;;3.78;;
55172;SDS011;41061;52.822;6.860;2023-03-16T04:09:34;10.13;;;5.15;;
55172;SDS011;41061;52.822;6.860;2023-03-16T04:12:00;7.05;;;3.40;;
55172;SDS011;41061;52.822;6.860;2023-03-16T04:14:27;8.40;;;3.03;;
55172;SDS011;41061;52.822;6.860;2023-03-16T04:16:53;8.93;;;3.80;;
55172;SDS011;41061;52.822;6.860;2023-03-16T04:19:20;8.15;;;3.58;;
55172;SDS011;41061;52.822;6.860;2023-03-16T04:21:46;6.72;;;3.15;;
55172;SDS011;41061;52.822;6.860;2023-03-16T04:24:12;12.15;;;3.75;;
55172;SDS011;41061;52.822;6.860;2023-03-16T04:26:39;8.60;;;3.22;;
55172;SDS011;41061;52.822;6.860;2023-03-16T04:29:05;10.73;;;3.35;;
55172;SDS011;41061;52.822;6.860;2023-03-16T04:31:31;5.63;;;3.20;;
55172;SDS011;41061;52.822;6.860;2023-03-16T04:33:57;9.43;;;3.08;;
55172;SDS011;41061;52.822;6.860;2023-03-16T04:36:23;4.82;;;2.85;;
55172;SDS011;41061;52.822;6.860;2023-03-16T04:38:49;6.78;;;3.40;;
55172;SDS011;41061;52.822;6.860;2023-03-16T04:41:16;6.57;;;3.30;;
55172;SDS011;41061;52.822;6.860;2023-03-16T04:43:42;10.52;;;3.58;;
55172;SDS011;41061;52.822;6.860;2023-03-16T04:46:08;7.20;;;3.63;;
55172;SDS011;41061;52.822;6.860;2023-03-16T04:48:34;5.53;;;2.95;;
55172;SDS011;41061;52.822;6.860;2023-03-16T04:51:00;12.25;;;3.75;;
55172;SDS011;41061;52.822;6.860;2023-03-16T04:53:30;11.23;;;3.70;;
55172;SDS011;41061;52.822;6.860;2023-03-16T04:55:58;6.45;;;3.40;;
55172;SDS011;41061;52.822;6.860;2023-03-16T04:58:24;7.78;;;3.53;;
55172;SDS011;41061;52.822;6.860;2023-03-16T05:00:51;6.93;;;3.45;;
55172;SDS011;41061;52.822;6.860;2023-03-16T05:03:17;4.35;;;3.17;;
55172;SDS011;41061;52.822;6.860;2023-03-16T05:05:42;6.47;;;3.13;;
55172;SDS011;41061;52.822;6.860;2023-03-16T05:08:10;6.60;;;3.20;;
55172;SDS011;41061;52.822;6.860;2023-03-16T05:10:36;8.75;;;3.33;;
55172;SDS011;41061;52.822;6.860;2023-03-16T05:13:02;9.75;;;3.58;;
55172;SDS011;41061;52.822;6.860;2023-03-16T05:15:29;7.30;;;3.25;;
55172;SDS011;41061;52.822;6.860;2023-03-16T05:17:55;9.73;;;4.20;;
55172;SDS011;41061;52.822;6.860;2023-03-16T05:20:21;6.65;;;3.60;;
55172;SDS011;41061;52.822;6.860;2023-03-16T05:22:48;8.68;;;3.83;;
55172;SDS011;41061;52.822;6.860;2023-03-16T05:25:14;8.00;;;3.70;;
55172;SDS011;41061;52.822;6.860;2023-03-16T05:27:41;7.72;;;3.70;;
55172;SDS011;41061;52.822;6.860;2023-03-16T05:30:09;8.60;;;3.55;;
55172;SDS011;41061;52.822;6.860;2023-03-16T05:32:36;7.00;;;3.28;;
55172;SDS011;41061;52.822;6.860;2023-03-16T05:35:02;7.72;;;3.42;;
55172;SDS011;41061;52.822;6.860;2023-03-16T05:37:28;10.15;;;3.63;;
55172;SDS011;41061;52.822;6.860;2023-03-16T05:39:55;6.20;;;3.47;;
55172;SDS011;41061;52.822;6.860;2023-03-16T05:42:22;8.70;;;4.05;;
55172;SDS011;41061;52.822;6.860;2023-03-16T05:44:51;9.48;;;3.60;;
55172;SDS011;41061;52.822;6.860;2023-03-16T05:47:18;8.52;;;3.38;;
55172;SDS011;41061;52.822;6.860;2023-03-16T05:49:44;6.43;;;3.35;;
55172;SDS011;41061;52.822;6.860;2023-03-16T05:52:10;7.40;;;3.70;;
55172;SDS011;41061;52.822;6.860;2023-03-16T05:54:36;9.40;;;3.30;;
55172;SDS011;41061;52.822;6.860;2023-03-16T05:57:02;7.70;;;3.40;;
55172;SDS011;41061;52.822;6.860;2023-03-16T05:59:28;8.35;;;3.70;;
55172;SDS011;41061;52.822;6.860;2023-03-16T06:01:53;8.45;;;3.55;;
55172;SDS011;41061;52.822;6.860;2023-03-16T06:04:19;6.60;;;3.50;;
55172;SDS011;41061;52.822;6.860;2023-03-16T06:06:45;9.15;;;3.90;;
55172;SDS011;41061;52.822;6.860;2023-03-16T06:09:11;8.70;;;3.28;;
55172;SDS011;41061;52.822;6.860;2023-03-16T06:11:37;10.50;;;3.10;;
55172;SDS011;41061;52.822;6.860;2023-03-16T06:14:02;6.47;;;3.25;;
55172;SDS011;41061;52.822;6.860;2023-03-16T06:16:29;7.13;;;3.60;;
55172;SDS011;41061;52.822;6.860;2023-03-16T06:18:54;9.07;;;3.15;;
55172;SDS011;41061;52.822;6.860;2023-03-16T06:21:21;9.52;;;3.97;;
55172;SDS011;41061;52.822;6.860;2023-03-16T06:23:47;6.25;;;3.60;;
55172;SDS011;41061;52.822;6.860;2023-03-16T06:26:13;9.13;;;4.32;;
55172;SDS011;41061;52.822;6.860;2023-03-16T06:28:39;9.93;;;3.45;;
55172;SDS011;41061;52.822;6.860;2023-03-16T06:31:05;6.93;;;3.58;;
55172;SDS011;41061;52.822;6.860;2023-03-16T06:33:31;8.27;;;3.63;;
55172;SDS011;41061;52.822;6.860;2023-03-16T06:35:57;7.10;;;3.53;;
55172;SDS011;41061;52.822;6.860;2023-03-16T06:38:23;5.15;;;3.50;;
55172;SDS011;41061;52.822;6.860;2023-03-16T06:40:51;7.50;;;3.60;;
55172;SDS011;41061;52.822;6.860;2023-03-16T06:43:17;7.60;;;3.53;;
55172;SDS011;41061;52.822;6.860;2023-03-16T06:45:44;5.88;;;3.17;;
55172;SDS011;41061;52.822;6.860;2023-03-16T06:48:09;3.85;;;2.50;;
55172;SDS011;41061;52.822;6.860;2023-03-16T06:50:35;3.75;;;2.83;;
55172;SDS011;41061;52.822;6.860;2023-03-16T06:53:01;6.65;;;3.05;;
55172;SDS011;41061;52.822;6.860;2023-03-16T06:55:27;6.47;;;3.83;;
55172;SDS011;41061;52.822;6.860;2023-03-16T06:57:52;4.60;;;2.90;;
55172;SDS011;41061;52.822;6.860;2023-03-16T07:00:18;7.18;;;3.50;;
55172;SDS011;41061;52.822;6.860;2023-03-16T07:02:44;5.35;;;2.60;;
55172;SDS011;41061;52.822;6.860;2023-03-16T07:05:10;7.82;;;3.58;;
55172;SDS011;41061;52.822;6.860;2023-03-16T07:07:42;5.20;;;3.20;;
55172;SDS011;41061;52.822;6.860;2023-03-16T07:10:12;5.70;;;3.60;;
55172;SDS011;41061;52.822;6.860;2023-03-16T07:12:39;4.93;;;2.90;;
55172;SDS011;41061;52.822;6.860;2023-03-16T07:15:06;5.57;;;3.00;;
55172;SDS011;41061;52.822;6.860;2023-03-16T07:17:32;10.88;;;3.25;;
55172;SDS011;41061;52.822;6.860;2023-03-16T07:19:58;7.07;;;2.78;;
55172;SDS011;41061;52.822;6.860;2023-03-16T07:22:23;10.48;;;3.08;;
55172;SDS011;41061;52.822;6.860;2023-03-16T07:24:49;4.97;;;3.08;;
55172;SDS011;41061;52.822;6.860;2023-03-16T07:27:21;6.90;;;3.47;;
55172;SDS011;41061;52.822;6.860;2023-03-16T07:29:48;5.60;;;2.80;;
55172;SDS011;41061;52.822;6.860;2023-03-16T07:32:14;8.63;;;3.40;;
55172;SDS011;41061;52.822;6.860;2023-03-16T07:34:40;6.05;;;3.28;;
55172;SDS011;41061;52.822;6.860;2023-03-16T07:37:06;6.70;;;2.72;;
55172;SDS011;41061;52.822;6.860;2023-03-16T07:39:33;11.40;;;4.25;;
55172;SDS011;41061;52.822;6.860;2023-03-16T07:41:59;6.82;;;3.83;;
55172;SDS011;41061;52.822;6.860;2023-03-16T07:44:26;8.85;;;4.72;;
55172;SDS011;41061;52.822;6.860;2023-03-16T07:46:52;7.72;;;3.65;;
55172;SDS011;41061;52.822;6.860;2023-03-16T07:49:17;6.40;;;2.92;;
55172;SDS011;41061;52.822;6.860;2023-03-16T07:51:43;6.32;;;3.35;;
55172;SDS011;41061;52.822;6.860;2023-03-16T07:54:09;4.93;;;2.63;;
55172;SDS011;41061;52.822;6.860;2023-03-16T07:56:35;4.43;;;3.00;;
55172;SDS011;41061;52.822;6.860;2023-03-16T07:59:01;6.43;;;2.70;;
55172;SDS011;41061;52.822;6.860;2023-03-16T08:01:27;6.30;;;2.67;;
55172;SDS011;41061;52.822;6.860;2023-03-16T08:03:52;9.65;;;2.88;;
55172;SDS011;41061;52.822;6.860;2023-03-16T08:06:18;5.68;;;3.22;;
55172;SDS011;41061;52.822;6.860;2023-03-16T08:08:45;5.68;;;2.92;;
55172;SDS011;41061;52.822;6.860;2023-03-16T08:11:11;9.35;;;3.30;;
55172;SDS011;41061;52.822;6.860;2023-03-16T08:13:38;5.40;;;3.28;;
55172;SDS011;41061;52.822;6.860;2023-03-16T08:16:07;8.82;;;3.38;;
55172;SDS011;41061;52.822;6.860;2023-03-16T08:18:34;4.90;;;2.75;;
55172;SDS011;41061;52.822;6.860;2023-03-16T08:21:01;5.47;;;2.90;;
55172;SDS011;41061;52.822;6.860;2023-03-16T08:23:27;7.68;;;3.45;;
55172;SDS011;41061;52.822;6.860;2023-03-16T08:25:53;7.57;;;3.50;;
55172;SDS011;41061;52.822;6.860;2023-03-16T08:28:20;6.07;;;3.20;;
55172;SDS011;41061;52.822;6.860;2023-03-16T08:30:47;6.97;;;3.70;;
55172;SDS011;41061;52.822;6.860;2023-03-16T08:33:15;9.43;;;3.60;;
55172;SDS011;41061;52.822;6.860;2023-03-16T08:35:45;6.22;;;3.00;;
55172;SDS011;41061;52.822;6.860;2023-03-16T08:38:12;9.10;;;3.55;;
55172;SDS011;41061;52.822;6.860;2023-03-16T08:40:40;7.75;;;3.70;;
55172;SDS011;41061;52.822;6.860;2023-03-16T08:43:13;5.13;;;3.35;;
55172;SDS011;41061;52.822;6.860;2023-03-16T08:45:40;5.20;;;3.13;;
55172;SDS011;41061;52.822;6.860;2023-03-16T08:48:07;8.48;;;3.67;;
55172;SDS011;41061;52.822;6.860;2023-03-16T08:50:36;6.20;;;2.70;;
55172;SDS011;41061;52.822;6.860;2023-03-16T08:53:04;7.25;;;3.17;;
55172;SDS011;41061;52.822;6.860;2023-03-16T08:55:31;7.05;;;3.97;;
55172;SDS011;41061;52.822;6.860;2023-03-16T08:57:56;7.43;;;3.20;;
55172;SDS011;41061;52.822;6.860;2023-03-16T09:00:22;6.05;;;4.03;;
55172;SDS011;41061;52.822;6.860;2023-03-16T09:02:48;7.95;;;3.75;;
55172;SDS011;41061;52.822;6.860;2023-03-16T09:05:14;6.10;;;4.00;;
55172;SDS011;41061;52.822;6.860;2023-03-16T09:07:40;7.28;;;3.78;;
55172;SDS011;41061;52.822;6.860;2023-03-16T09:10:07;7.97;;;3.85;;
55172;SDS011;41061;52.822;6.860;2023-03-16T09:12:37;7.68;;;3.92;;
55172;SDS011;41061;52.822;6.860;2023-03-16T09:15:05;4.50;;;2.70;;
55172;SDS011;41061;52.822;6.860;2023-03-16T09:17:32;5.10;;;3.55;;
55172;SDS011;41061;52.822;6.860;2023-03-16T09:19:58;10.15;;;4.22;;
55172;SDS011;41061;52.822;6.860;2023-03-16T09:22:24;9.05;;;3.58;;
55172;SDS011;41061;52.822;6.860;2023-03-16T09:24:50;7.45;;;3.88;;
55172;SDS011;41061;52.822;6.860;2023-03-16T09:27:16;7.80;;;3.85;;
55172;SDS011;41061;52.822;6.860;2023-03-16T09:29:42;7.30;;;4.30;;
55172;SDS011;41061;52.822;6.860;2023-03-16T09:32:09;7.18;;;3.53;;
55172;SDS011;41061;52.822;6.860;2023-03-16T09:34:35;11.45;;;4.10;;
55172;SDS011;41061;52.822;6.860;2023-03-16T09:37:00;6.18;;;4.00;;
55172;SDS011;41061;52.822;6.860;2023-03-16T09:39:26;6.50;;;4.45;;
55172;SDS011;41061;52.822;6.860;2023-03-16T09:41:58;9.43;;;4.65;;
55172;SDS011;41061;52.822;6.860;2023-03-16T09:47:10;8.48;;;4.53;;
55172;SDS011;41061;52.822;6.860;2023-03-16T09:49:44;6.72;;;4.45;;
55172;SDS011;41061;52.822;6.860;2023-03-16T09:55:00;8.85;;;4.95;;
55172;SDS011;41061;52.822;6.860;2023-03-16T09:57:38;10.90;;;5.00;;
55172;SDS011;41061;52.822;6.860;2023-03-16T10:05:14;7.90;;;4.13;;
55172;SDS011;41061;52.822;6.860;2023-03-16T10:15:58;7.88;;;4.50;;
55172;SDS011;41061;52.822;6.860;2023-03-16T10:18:30;7.88;;;4.63;;
55172;SDS011;41061;52.822;6.860;2023-03-16T10:21:03;11.10;;;4.70;;
55172;SDS011;41061;52.822;6.860;2023-03-16T10:23:30;7.47;;;4.40;;
55172;SDS011;41061;52.822;6.860;2023-03-16T10:25:59;10.38;;;4.78;;
55172;SDS011;41061;52.822;6.860;2023-03-16T10:28:29;7.53;;;4.22;;
55172;SDS011;41061;52.822;6.860;2023-03-16T10:30:57;6.78;;;4.35;;
55172;SDS011;41061;52.822;6.860;2023-03-16T10:33:31;5.88;;;4.18;;
55172;SDS011;41061;52.822;6.860;2023-03-16T10:35:59;5.93;;;4.13;;
55172;SDS011;41061;52.822;6.860;2023-03-16T10:41:20;8.30;;;4.00;;
55172;SDS011;41061;52.822;6.860;2023-03-16T10:43:53;8.52;;;4.43;;
55172;SDS011;41061;52.822;6.860;2023-03-16T10:46:47;7.05;;;3.97;;
55172;SDS011;41061;52.822;6.860;2023-03-16T10:49:21;9.95;;;4.38;;
55172;SDS011;41061;52.822;6.860;2023-03-16T10:51:56;7.32;;;4.78;;
55172;SDS011;41061;52.822;6.860;2023-03-16T10:54:27;6.28;;;3.63;;
55172;SDS011;41061;52.822;6.860;2023-03-16T10:56:54;8.55;;;4.47;;
55172;SDS011;41061;52.822;6.860;2023-03-16T10:59:34;7.13;;;4.72;;
55172;SDS011;41061;52.822;6.860;2023-03-16T11:02:02;5.53;;;3.42;;
55172;SDS011;41061;52.822;6.860;2023-03-16T11:04:39;10.07;;;4.28;;
55172;SDS011;41061;52.822;6.860;2023-03-16T11:07:06;12.63;;;4.45;;
55172;SDS011;41061;52.822;6.860;2023-03-16T11:09:39;8.68;;;4.25;;
55172;SDS011;41061;52.822;6.860;2023-03-16T11:12:19;8.75;;;4.45;;
55172;SDS011;41061;52.822;6.860;2023-03-16T11:14:48;8.48;;;4.10;;
55172;SDS011;41061;52.822;6.860;2023-03-16T11:17:15;9.45;;;4.05;;
55172;SDS011;41061;52.822;6.860;2023-03-16T11:19:53;7.68;;;3.92;;
55172;SDS011;41061;52.822;6.860;2023-03-16T11:22:23;8.65;;;4.35;;
55172;SDS011;41061;52.822;6.860;2023-03-16T11:25:34;9.13;;;4.10;;
55172;SDS011;41061;52.822;6.860;2023-03-16T11:27:58;7.53;;;4.18;;
55172;SDS011;41061;52.822;6.860;2023-03-16T11:33:15;8.50;;;4.20;;
55172;SDS011;41061;52.822;6.860;2023-03-16T11:41:02;6.35;;;3.65;;
55172;SDS011;41061;52.822;6.860;2023-03-16T11:46:27;7.95;;;3.70;;
55172;SDS011;41061;52.822;6.860;2023-03-16T11:56:42;5.65;;;3.40;;
55172;SDS011;41061;52.822;6.860;2023-03-16T11:59:17;8.10;;;4.07;;
55172;SDS011;41061;52.822;6.860;2023-03-16T12:05:16;5.53;;;3.35;;
55172;SDS011;41061;52.822;6.860;2023-03-16T12:16:00;5.20;;;3.80;;
55172;SDS011;41061;52.822;6.860;2023-03-16T12:21:34;9.80;;;4.25;;
55172;SDS011;41061;52.822;6.860;2023-03-16T12:24:04;5.28;;;3.67;;
55172;SDS011;41061;52.822;6.860;2023-03-16T12:26:39;5.15;;;3.15;;
55172;SDS011;41061;52.822;6.860;2023-03-16T12:29:12;7.38;;;3.95;;
55172;SDS011;41061;52.822;6.860;2023-03-16T12:32:08;8.60;;;3.65;;
55172;SDS011;41061;52.822;6.860;2023-03-16T12:35:43;7.50;;;3.65;;
55172;SDS011;41061;52.822;6.860;2023-03-16T12:43:49;6.75;;;3.63;;
55172;SDS011;41061;52.822;6.860;2023-03-16T12:48:55;8.30;;;3.65;;
55172;SDS011;41061;52.822;6.860;2023-03-16T12:51:34;6.57;;;3.00;;
55172;SDS011;41061;52.822;6.860;2023-03-16T12:54:01;6.18;;;3.42;;
55172;SDS011;41061;52.822;6.860;2023-03-16T12:56:29;7.00;;;3.00;;
55172;SDS011;41061;52.822;6.860;2023-03-16T12:59:03;5.78;;;3.60;;
55172;SDS011;41061;52.822;6.860;2023-03-16T13:01:40;5.38;;;3.28;;
55172;SDS011;41061;52.822;6.860;2023-03-16T13:04:12;8.25;;;3.83;;
55172;SDS011;41061;52.822;6.860;2023-03-16T13:06:44;7.65;;;3.50;;
55172;SDS011;41061;52.822;6.860;2023-03-16T13:09:16;6.15;;;3.88;;
55172;SDS011;41061;52.822;6.860;2023-03-16T13:11:49;7.75;;;3.40;;
55172;SDS011;41061;52.822;6.860;2023-03-16T13:14:16;8.88;;;3.83;;
55172;SDS011;41061;52.822;6.860;2023-03-16T13:17:04;5.28;;;2.75;;
55172;SDS011;41061;52.822;6.860;2023-03-16T13:19:41;7.57;;;3.45;;
55172;SDS011;41061;52.822;6.860;2023-03-16T13:27:46;8.23;;;3.95;;
55172;SDS011;41061;52.822;6.860;2023-03-16T13:32:53;6.70;;;3.10;;
55172;SDS011;41061;52.822;6.860;2023-03-16T13:35:20;7.70;;;3.60;;
55172;SDS011;41061;52.822;6.860;2023-03-16T13:37:51;6.95;;;3.20;;
55172;SDS011;41061;52.822;6.860;2023-03-16T13:40:19;4.30;;;3.03;;
55172;SDS011;41061;52.822;6.860;2023-03-16T13:42:48;12.25;;;4.75;;
55172;SDS011;41061;52.822;6.860;2023-03-16T13:45:18;12.45;;;4.95;;
55172;SDS011;41061;52.822;6.860;2023-03-16T13:47:48;7.60;;;3.65;;
55172;SDS011;41061;52.822;6.860;2023-03-16T13:50:14;10.23;;;5.13;;
55172;SDS011;41061;52.822;6.860;2023-03-16T13:52:42;10.15;;;4.78;;
55172;SDS011;41061;52.822;6.860;2023-03-16T13:55:15;6.97;;;3.83;;
55172;SDS011;41061;52.822;6.860;2023-03-16T13:57:42;9.48;;;3.08;;
55172;SDS011;41061;52.822;6.860;2023-03-16T14:02:45;7.03;;;2.95;;
55172;SDS011;41061;52.822;6.860;2023-03-16T14:05:20;5.43;;;3.03;;
55172;SDS011;41061;52.822;6.860;2023-03-16T14:07:52;6.13;;;3.13;;
55172;SDS011;41061;52.822;6.860;2023-03-16T14:10:19;6.10;;;3.08;;
55172;SDS011;41061;52.822;6.860;2023-03-16T14:12:50;3.97;;;2.58;;
55172;SDS011;41061;52.822;6.860;2023-03-16T14:15:20;4.88;;;2.90;;
55172;SDS011;41061;52.822;6.860;2023-03-16T14:17:49;6.40;;;3.30;;
55172;SDS011;41061;52.822;6.860;2023-03-16T14:20:19;6.50;;;2.80;;
55172;SDS011;41061;52.822;6.860;2023-03-16T14:22:49;5.05;;;2.95;;
55172;SDS011;41061;52.822;6.860;2023-03-16T14:25:23;6.78;;;3.78;;
55172;SDS011;41061;52.822;6.860;2023-03-16T14:27:58;7.30;;;3.42;;
55172;SDS011;41061;52.822;6.860;2023-03-16T14:30:26;6.65;;;3.53;;
55172;SDS011;41061;52.822;6.860;2023-03-16T14:35:42;7.72;;;3.20;;
55172;SDS011;41061;52.822;6.860;2023-03-16T14:40:54;6.22;;;2.72;;
55172;SDS011;41061;52.822;6.860;2023-03-16T14:43:24;4.55;;;2.38;;
55172;SDS011;41061;52.822;6.860;2023-03-16T14:45:53;7.50;;;3.13;;
55172;SDS011;41061;52.822;6.860;2023-03-16T14:48:19;5.43;;;2.53;;
55172;SDS011;41061;52.822;6.860;2023-03-16T14:50:52;6.07;;;2.30;;
55172;SDS011;41061;52.822;6.860;2023-03-16T14:53:20;5.80;;;2.70;;
55172;SDS011;41061;52.822;6.860;2023-03-16T14:55:46;7.85;;;2.90;;
55172;SDS011;41061;52.822;6.860;2023-03-16T14:58:12;5.88;;;3.10;;
55172;SDS011;41061;52.822;6.860;2023-03-16T15:00:38;4.55;;;2.53;;
55172;SDS011;41061;52.822;6.860;2023-03-16T15:03:06;6.13;;;2.60;;
55172;SDS011;41061;52.822;6.860;2023-03-16T15:05:37;5.07;;;2.65;;
55172;SDS011;41061;52.822;6.860;2023-03-16T15:08:05;6.18;;;2.50;;
55172;SDS011;41061;52.822;6.860;2023-03-16T15:10:43;4.45;;;2.30;;
55172;SDS011;41061;52.822;6.860;2023-03-16T15:13:17;5.53;;;2.35;;
55172;SDS011;41061;52.822;6.860;2023-03-16T15:16:08;5.05;;;2.70;;
55172;SDS011;41061;52.822;6.860;2023-03-16T15:18:35;8.63;;;2.10;;
55172;SDS011;41061;52.822;6.860;2023-03-16T15:21:03;4.03;;;2.75;;
55172;SDS011;41061;52.822;6.860;2023-03-16T15:23:36;3.85;;;2.50;;
55172;SDS011;41061;52.822;6.860;2023-03-16T15:26:03;4.10;;;2.30;;
55172;SDS011;41061;52.822;6.860;2023-03-16T15:28:31;8.05;;;2.45;;
55172;SDS011;41061;52.822;6.860;2023-03-16T15:30:58;5.13;;;2.38;;
55172;SDS011;41061;52.822;6.860;2023-03-16T15:33:27;3.90;;;1.98;;
55172;SDS011;41061;52.822;6.860;2023-03-16T15:35:55;4.07;;;2.80;;
55172;SDS011;41061;52.822;6.860;2023-03-16T15:40:51;9.27;;;3.03;;
55172;SDS011;41061;52.822;6.860;2023-03-16T15:43:20;6.72;;;2.70;;
55172;SDS011;41061;52.822;6.860;2023-03-16T15:45:48;6.88;;;3.45;;
55172;SDS011;41061;52.822;6.860;2023-03-16T15:48:16;8.02;;;4.03;;
55172;SDS011;41061;52.822;6.860;2023-03-16T15:53:32;6.03;;;3.50;;
55172;SDS011;41061;52.822;6.860;2023-03-16T15:56:04;7.22;;;2.78;;
55172;SDS011;41061;52.822;6.860;2023-03-16T15:58:33;6.32;;;2.72;;
55172;SDS011;41061;52.822;6.860;2023-03-16T16:01:00;6.75;;;2.78;;
55172;SDS011;41061;52.822;6.860;2023-03-16T16:03:27;5.03;;;2.85;;
55172;SDS011;41061;52.822;6.860;2023-03-16T16:05:53;9.18;;;2.92;;
55172;SDS011;41061;52.822;6.860;2023-03-16T16:08:19;6.90;;;2.85;;
55172;SDS011;41061;52.822;6.860;2023-03-16T16:10:45;5.15;;;2.75;;
55172;SDS011;41061;52.822;6.860;2023-03-16T16:13:34;16.00;;;3.25;;
55172;SDS011;41061;52.822;6.860;2023-03-16T16:15:59;6.28;;;2.63;;
55172;SDS011;41061;52.822;6.860;2023-03-16T16:18:26;4.15;;;2.42;;
55172;SDS011;41061;52.822;6.860;2023-03-16T16:20:56;6.10;;;2.58;;
55172;SDS011;41061;52.822;6.860;2023-03-16T16:23:23;5.95;;;2.70;;
55172;SDS011;41061;52.822;6.860;2023-03-16T16:25:50;3.58;;;2.13;;